Погода Дубына 2 недели

Витебская область, Белоруссия

24 июля-05 августа
  • 24июля
    Сегодня
    +14°
    +25°
    Небольшая облачность
    ВремяПогодаТемператураВлажностьДавлениеВетер, м/сВероятность осадков
    00:00Ясно и безоблачно+18°C84 %744 мм2.1 м/с2 %
    03:00Ясно и безоблачно+16°C87 %743 мм2.0 м/с2 %
    06:00Ясно и безоблачно+15°C90 %743 мм1.3 м/с2 %
    09:00Небольшая облачность+20°C72 %743 мм1.1 м/с2 %
    12:00Практически безоблачно+24°C57 %743 мм1.8 м/с13 %
    15:00Небольшая облачность+25°C53 %743 мм2.6 м/с24 %
    18:00Небольшая облачность+24°C61 %742 мм2.3 м/с22 %
    21:00Ясно и безоблачно+21°C77 %742 мм1.6 м/с3 %
  • 25июля
    Четверг
    +17°
    +26°
    Облачно с прояснениями
    ВремяПогодаТемператураВлажностьДавлениеВетер, м/сВероятность осадков
    00:00Практически безоблачно+18°C83 %742 мм1.8 м/с2 %
    03:00Ясно и безоблачно+16°C90 %741 мм1.9 м/с2 %
    06:00Ясно и безоблачно+16°C87 %741 мм1.7 м/с2 %
    09:00Ясно и безоблачно+21°C64 %742 мм1.3 м/с2 %
    12:00Небольшая облачность+25°C42 %741 мм2.4 м/с2 %
    15:00Облачно с прояснениями+26°C41 %741 мм2.3 м/с2 %
    18:00Пасмурно, сплошная облачность+25°C45 %741 мм1.7 м/с2 %
    21:00Практически безоблачно+21°C72 %741 мм1.9 м/с2 %
  • 26июля
    Пятница
    +16°
    +27°
    Облачно с прояснениями
    ВремяПогодаТемператураВлажностьДавлениеВетер, м/сВероятность осадков
    00:00Облачно с прояснениями+20°C76 %741 мм1.7 м/с2 %
    03:00Облачно с прояснениями+18°C74 %741 мм2.2 м/с2 %
    06:00Облачно с прояснениями+18°C76 %742 мм1.8 м/с2 %
    09:00Практически безоблачно+22°C67 %742 мм1.1 м/с2 %
    12:00Ясно и безоблачно+26°C51 %743 мм1.7 м/с10 %
    15:00Облачно с прояснениями+27°C46 %743 мм1.2 м/с29 %
    18:00Практически безоблачно+24°C62 %744 мм1.7 м/с28 %
    21:00Ясно и безоблачно+23°C71 %744 мм0.9 м/с10 %
  • 27июля
    Суббота
    +18°
    +27°
    Ясно и безоблачно
    ВремяПогодаТемператураВлажностьДавлениеВетер, м/сВероятность осадков
    00:00Ясно и безоблачно+19°C87 %745 мм2.0 м/с4 %
    03:00Ясно и безоблачно+17°C93 %745 мм2.3 м/с5 %
    06:00Ясно и безоблачно+18°C92 %746 мм1.6 м/с6 %
    09:00Ясно и безоблачно+22°C72 %747 мм0.8 м/с2 %
    12:00Практически безоблачно+26°C48 %747 мм1.0 м/с12 %
    15:00Ясно и безоблачно+27°C44 %747 мм2.5 м/с24 %
    18:00Практически безоблачно+27°C45 %746 мм1.6 м/с41 %
    21:00Ясно и безоблачно+23°C63 %747 мм1.9 м/с13 %
Мы используем cookies
Соглашаюсь